sensor_id;sensor_type;location;lat;lon;timestamp;P1;durP1;ratioP1;P2;durP2;ratioP2
50547;SDS011;38013;48.810;8.818;2023-03-23T00:01:22;1.88;;;0.63;;
50547;SDS011;38013;48.810;8.818;2023-03-23T00:03:50;1.55;;;0.80;;
50547;SDS011;38013;48.810;8.818;2023-03-23T00:06:18;1.70;;;0.70;;
50547;SDS011;38013;48.810;8.818;2023-03-23T00:08:47;1.33;;;0.75;;
50547;SDS011;38013;48.810;8.818;2023-03-23T00:11:19;2.33;;;0.80;;
50547;SDS011;38013;48.810;8.818;2023-03-23T00:13:47;1.52;;;0.70;;
50547;SDS011;38013;48.810;8.818;2023-03-23T00:16:21;1.88;;;0.88;;
50547;SDS011;38013;48.810;8.818;2023-03-23T00:19:10;1.67;;;0.80;;
50547;SDS011;38013;48.810;8.818;2023-03-23T00:21:39;1.77;;;0.77;;
50547;SDS011;38013;48.810;8.818;2023-03-23T00:24:14;2.65;;;0.90;;
50547;SDS011;38013;48.810;8.818;2023-03-23T00:26:41;4.43;;;1.17;;
50547;SDS011;38013;48.810;8.818;2023-03-23T00:29:14;4.63;;;0.93;;
50547;SDS011;38013;48.810;8.818;2023-03-23T00:31:48;1.98;;;0.80;;
50547;SDS011;38013;48.810;8.818;2023-03-23T00:34:15;2.20;;;0.90;;
50547;SDS011;38013;48.810;8.818;2023-03-23T00:36:47;3.65;;;0.80;;
50547;SDS011;38013;48.810;8.818;2023-03-23T00:39:15;2.00;;;0.95;;
50547;SDS011;38013;48.810;8.818;2023-03-23T00:41:45;2.00;;;0.70;;
50547;SDS011;38013;48.810;8.818;2023-03-23T00:44:12;1.13;;;0.70;;
50547;SDS011;38013;48.810;8.818;2023-03-23T00:46:45;1.75;;;0.88;;
50547;SDS011;38013;48.810;8.818;2023-03-23T00:49:14;4.55;;;0.70;;
50547;SDS011;38013;48.810;8.818;2023-03-23T00:51:42;2.15;;;0.93;;
50547;SDS011;38013;48.810;8.818;2023-03-23T00:54:08;2.58;;;0.68;;
50547;SDS011;38013;48.810;8.818;2023-03-23T00:56:35;1.95;;;0.90;;
50547;SDS011;38013;48.810;8.818;2023-03-23T00:59:02;2.17;;;0.93;;
50547;SDS011;38013;48.810;8.818;2023-03-23T01:01:28;2.70;;;0.90;;
50547;SDS011;38013;48.810;8.818;2023-03-23T01:03:57;2.05;;;0.90;;
50547;SDS011;38013;48.810;8.818;2023-03-23T01:06:33;2.03;;;0.80;;
50547;SDS011;38013;48.810;8.818;2023-03-23T01:09:07;1.50;;;0.73;;
50547;SDS011;38013;48.810;8.818;2023-03-23T01:11:43;1.92;;;0.90;;
50547;SDS011;38013;48.810;8.818;2023-03-23T01:16:36;3.92;;;1.00;;
50547;SDS011;38013;48.810;8.818;2023-03-23T01:19:02;1.90;;;0.90;;
50547;SDS011;38013;48.810;8.818;2023-03-23T01:21:28;2.28;;;0.90;;
50547;SDS011;38013;48.810;8.818;2023-03-23T01:23:55;1.83;;;0.90;;
50547;SDS011;38013;48.810;8.818;2023-03-23T01:26:22;5.38;;;1.00;;
50547;SDS011;38013;48.810;8.818;2023-03-23T01:28:50;1.95;;;0.75;;
50547;SDS011;38013;48.810;8.818;2023-03-23T01:31:18;5.47;;;1.00;;
50547;SDS011;38013;48.810;8.818;2023-03-23T01:33:47;3.17;;;1.00;;
50547;SDS011;38013;48.810;8.818;2023-03-23T01:36:20;2.45;;;0.90;;
50547;SDS011;38013;48.810;8.818;2023-03-23T01:38:56;3.08;;;1.23;;
50547;SDS011;38013;48.810;8.818;2023-03-23T01:41:23;2.28;;;0.90;;
50547;SDS011;38013;48.810;8.818;2023-03-23T01:43:54;3.05;;;1.00;;
50547;SDS011;38013;48.810;8.818;2023-03-23T01:46:30;1.65;;;0.80;;
50547;SDS011;38013;48.810;8.818;2023-03-23T01:49:01;2.17;;;0.80;;
50547;SDS011;38013;48.810;8.818;2023-03-23T01:51:37;1.67;;;0.90;;
50547;SDS011;38013;48.810;8.818;2023-03-23T01:54:11;2.08;;;0.90;;
50547;SDS011;38013;48.810;8.818;2023-03-23T01:56:46;1.63;;;0.82;;
50547;SDS011;38013;48.810;8.818;2023-03-23T01:59:22;2.67;;;0.90;;
50547;SDS011;38013;48.810;8.818;2023-03-23T02:02:06;2.45;;;0.80;;
50547;SDS011;38013;48.810;8.818;2023-03-23T02:04:33;1.90;;;1.00;;
50547;SDS011;38013;48.810;8.818;2023-03-23T02:06:59;3.47;;;1.13;;
50547;SDS011;38013;48.810;8.818;2023-03-23T02:09:27;3.03;;;0.80;;
50547;SDS011;38013;48.810;8.818;2023-03-23T02:11:53;1.92;;;1.00;;
50547;SDS011;38013;48.810;8.818;2023-03-23T02:14:21;2.15;;;0.80;;
50547;SDS011;38013;48.810;8.818;2023-03-23T02:16:52;1.83;;;0.90;;
50547;SDS011;38013;48.810;8.818;2023-03-23T02:28:54;3.00;;;0.90;;
50547;SDS011;38013;48.810;8.818;2023-03-23T02:32:16;2.83;;;1.05;;
50547;SDS011;38013;48.810;8.818;2023-03-23T02:35:40;2.38;;;1.08;;
50547;SDS011;38013;48.810;8.818;2023-03-23T02:38:16;2.72;;;1.17;;
50547;SDS011;38013;48.810;8.818;2023-03-23T02:40:55;1.88;;;0.90;;
50547;SDS011;38013;48.810;8.818;2023-03-23T02:43:27;4.78;;;0.98;;
50547;SDS011;38013;48.810;8.818;2023-03-23T02:45:58;1.85;;;0.95;;
50547;SDS011;38013;48.810;8.818;2023-03-23T02:48:27;1.88;;;0.90;;
50547;SDS011;38013;48.810;8.818;2023-03-23T02:50:55;2.38;;;1.10;;
50547;SDS011;38013;48.810;8.818;2023-03-23T02:53:22;5.25;;;1.00;;
50547;SDS011;38013;48.810;8.818;2023-03-23T02:55:51;3.38;;;1.15;;
50547;SDS011;38013;48.810;8.818;2023-03-23T02:58:21;2.38;;;0.90;;
50547;SDS011;38013;48.810;8.818;2023-03-23T03:00:51;2.13;;;0.82;;
50547;SDS011;38013;48.810;8.818;2023-03-23T03:03:20;2.33;;;1.00;;
50547;SDS011;38013;48.810;8.818;2023-03-23T03:06:14;4.40;;;1.00;;
50547;SDS011;38013;48.810;8.818;2023-03-23T03:09:23;1.90;;;0.93;;
50547;SDS011;38013;48.810;8.818;2023-03-23T03:11:58;3.83;;;1.13;;
50547;SDS011;38013;48.810;8.818;2023-03-23T03:14:44;5.70;;;1.23;;
50547;SDS011;38013;48.810;8.818;2023-03-23T03:17:25;2.80;;;1.00;;
50547;SDS011;38013;48.810;8.818;2023-03-23T03:19:58;2.67;;;0.90;;
50547;SDS011;38013;48.810;8.818;2023-03-23T03:22:35;2.33;;;1.00;;
50547;SDS011;38013;48.810;8.818;2023-03-23T03:25:07;2.05;;;1.00;;
50547;SDS011;38013;48.810;8.818;2023-03-23T03:27:38;2.15;;;0.90;;
50547;SDS011;38013;48.810;8.818;2023-03-23T03:30:13;3.10;;;1.23;;
50547;SDS011;38013;48.810;8.818;2023-03-23T03:32:46;2.67;;;1.30;;
50547;SDS011;38013;48.810;8.818;2023-03-23T03:35:16;3.13;;;0.88;;
50547;SDS011;38013;48.810;8.818;2023-03-23T03:37:43;3.10;;;1.17;;
50547;SDS011;38013;48.810;8.818;2023-03-23T03:40:11;1.92;;;1.00;;
50547;SDS011;38013;48.810;8.818;2023-03-23T03:42:42;3.13;;;1.10;;
50547;SDS011;38013;48.810;8.818;2023-03-23T03:45:11;2.28;;;1.10;;
50547;SDS011;38013;48.810;8.818;2023-03-23T03:47:41;3.35;;;1.30;;
50547;SDS011;38013;48.810;8.818;2023-03-23T03:50:07;1.88;;;1.05;;
50547;SDS011;38013;48.810;8.818;2023-03-23T03:52:35;2.92;;;1.10;;
50547;SDS011;38013;48.810;8.818;2023-03-23T03:55:04;2.45;;;0.90;;
50547;SDS011;38013;48.810;8.818;2023-03-23T03:57:32;4.07;;;1.02;;
50547;SDS011;38013;48.810;8.818;2023-03-23T04:00:23;4.43;;;1.30;;
50547;SDS011;38013;48.810;8.818;2023-03-23T04:02:49;2.08;;;1.10;;
50547;SDS011;38013;48.810;8.818;2023-03-23T04:05:50;2.92;;;0.98;;
50547;SDS011;38013;48.810;8.818;2023-03-23T04:08:16;2.25;;;0.90;;
50547;SDS011;38013;48.810;8.818;2023-03-23T04:10:42;2.03;;;1.00;;
50547;SDS011;38013;48.810;8.818;2023-03-23T04:13:09;1.45;;;0.85;;
50547;SDS011;38013;48.810;8.818;2023-03-23T04:16:04;4.07;;;1.00;;
50547;SDS011;38013;48.810;8.818;2023-03-23T04:18:32;2.30;;;1.10;;
50547;SDS011;38013;48.810;8.818;2023-03-23T04:20:59;1.67;;;0.88;;
50547;SDS011;38013;48.810;8.818;2023-03-23T04:23:28;2.17;;;1.08;;
50547;SDS011;38013;48.810;8.818;2023-03-23T04:26:01;3.55;;;1.35;;
50547;SDS011;38013;48.810;8.818;2023-03-23T04:28:33;2.05;;;0.90;;
50547;SDS011;38013;48.810;8.818;2023-03-23T04:31:19;2.85;;;1.20;;
50547;SDS011;38013;48.810;8.818;2023-03-23T04:33:51;2.97;;;0.95;;
50547;SDS011;38013;48.810;8.818;2023-03-23T04:36:20;3.10;;;0.80;;
50547;SDS011;38013;48.810;8.818;2023-03-23T04:38:56;4.70;;;0.90;;
50547;SDS011;38013;48.810;8.818;2023-03-23T04:41:23;2.75;;;0.93;;
50547;SDS011;38013;48.810;8.818;2023-03-23T04:44:08;2.05;;;0.73;;
50547;SDS011;38013;48.810;8.818;2023-03-23T04:46:44;2.45;;;0.93;;
50547;SDS011;38013;48.810;8.818;2023-03-23T04:49:16;3.33;;;1.00;;
50547;SDS011;38013;48.810;8.818;2023-03-23T04:51:47;1.73;;;1.00;;
50547;SDS011;38013;48.810;8.818;2023-03-23T04:54:22;2.95;;;1.17;;
50547;SDS011;38013;48.810;8.818;2023-03-23T04:56:53;2.83;;;0.90;;
50547;SDS011;38013;48.810;8.818;2023-03-23T04:59:18;2.67;;;0.90;;
50547;SDS011;38013;48.810;8.818;2023-03-23T05:01:56;2.60;;;1.10;;
50547;SDS011;38013;48.810;8.818;2023-03-23T05:04:22;2.90;;;1.10;;
50547;SDS011;38013;48.810;8.818;2023-03-23T05:07:10;2.97;;;0.90;;
50547;SDS011;38013;48.810;8.818;2023-03-23T05:09:46;1.95;;;0.90;;
50547;SDS011;38013;48.810;8.818;2023-03-23T05:12:13;2.17;;;1.10;;
50547;SDS011;38013;48.810;8.818;2023-03-23T05:15:06;2.00;;;0.77;;
50547;SDS011;38013;48.810;8.818;2023-03-23T05:17:34;1.95;;;0.90;;
50547;SDS011;38013;48.810;8.818;2023-03-23T05:20:07;3.70;;;1.05;;
50547;SDS011;38013;48.810;8.818;2023-03-23T05:22:44;2.95;;;1.10;;
50547;SDS011;38013;48.810;8.818;2023-03-23T05:25:13;2.88;;;1.10;;
50547;SDS011;38013;48.810;8.818;2023-03-23T05:27:43;2.67;;;0.95;;
50547;SDS011;38013;48.810;8.818;2023-03-23T05:30:27;2.33;;;0.90;;
50547;SDS011;38013;48.810;8.818;2023-03-23T05:32:55;3.13;;;1.00;;
50547;SDS011;38013;48.810;8.818;2023-03-23T05:35:34;2.58;;;0.80;;
50547;SDS011;38013;48.810;8.818;2023-03-23T05:38:01;2.10;;;1.15;;
50547;SDS011;38013;48.810;8.818;2023-03-23T05:40:28;4.03;;;1.13;;
50547;SDS011;38013;48.810;8.818;2023-03-23T05:43:00;1.77;;;0.90;;
50547;SDS011;38013;48.810;8.818;2023-03-23T05:45:39;1.98;;;0.90;;
50547;SDS011;38013;48.810;8.818;2023-03-23T05:48:06;4.78;;;0.90;;
50547;SDS011;38013;48.810;8.818;2023-03-23T05:50:32;1.55;;;0.80;;
50547;SDS011;38013;48.810;8.818;2023-03-23T05:52:58;3.15;;;0.95;;
50547;SDS011;38013;48.810;8.818;2023-03-23T05:55:25;2.40;;;0.90;;
50547;SDS011;38013;48.810;8.818;2023-03-23T05:58:06;1.77;;;0.82;;
50547;SDS011;38013;48.810;8.818;2023-03-23T06:00:35;5.35;;;1.20;;
50547;SDS011;38013;48.810;8.818;2023-03-23T06:03:12;2.05;;;1.00;;
50547;SDS011;38013;48.810;8.818;2023-03-23T06:05:54;1.85;;;0.98;;
50547;SDS011;38013;48.810;8.818;2023-03-23T06:08:26;2.67;;;1.13;;
50547;SDS011;38013;48.810;8.818;2023-03-23T06:10:54;3.25;;;1.02;;
50547;SDS011;38013;48.810;8.818;2023-03-23T06:13:20;4.80;;;1.20;;
50547;SDS011;38013;48.810;8.818;2023-03-23T06:15:48;2.08;;;1.08;;
50547;SDS011;38013;48.810;8.818;2023-03-23T06:18:29;2.72;;;0.95;;
50547;SDS011;38013;48.810;8.818;2023-03-23T06:21:04;3.45;;;1.00;;
50547;SDS011;38013;48.810;8.818;2023-03-23T06:24:00;3.30;;;1.00;;
50547;SDS011;38013;48.810;8.818;2023-03-23T06:26:33;2.33;;;1.10;;
50547;SDS011;38013;48.810;8.818;2023-03-23T06:29:06;1.88;;;1.00;;
50547;SDS011;38013;48.810;8.818;2023-03-23T06:31:37;2.83;;;0.90;;
50547;SDS011;38013;48.810;8.818;2023-03-23T06:34:10;4.75;;;1.10;;
50547;SDS011;38013;48.810;8.818;2023-03-23T06:36:55;2.30;;;1.05;;
50547;SDS011;38013;48.810;8.818;2023-03-23T06:39:30;2.20;;;1.02;;
50547;SDS011;38013;48.810;8.818;2023-03-23T06:42:11;3.70;;;1.08;;
50547;SDS011;38013;48.810;8.818;2023-03-23T06:44:42;3.10;;;1.38;;
50547;SDS011;38013;48.810;8.818;2023-03-23T06:47:10;3.88;;;1.08;;
50547;SDS011;38013;48.810;8.818;2023-03-23T06:49:40;2.30;;;1.00;;
50547;SDS011;38013;48.810;8.818;2023-03-23T06:52:32;2.85;;;1.17;;
50547;SDS011;38013;48.810;8.818;2023-03-23T06:54:58;2.92;;;0.90;;
50547;SDS011;38013;48.810;8.818;2023-03-23T06:57:24;3.80;;;1.15;;
50547;SDS011;38013;48.810;8.818;2023-03-23T06:59:51;3.50;;;1.00;;
50547;SDS011;38013;48.810;8.818;2023-03-23T07:02:17;3.65;;;1.08;;
50547;SDS011;38013;48.810;8.818;2023-03-23T07:04:46;2.90;;;1.20;;
50547;SDS011;38013;48.810;8.818;2023-03-23T07:07:21;2.58;;;1.10;;
50547;SDS011;38013;48.810;8.818;2023-03-23T07:09:52;2.83;;;1.00;;
50547;SDS011;38013;48.810;8.818;2023-03-23T07:12:21;3.05;;;1.15;;
50547;SDS011;38013;48.810;8.818;2023-03-23T07:14:49;4.45;;;1.15;;
50547;SDS011;38013;48.810;8.818;2023-03-23T07:17:15;2.63;;;1.10;;
50547;SDS011;38013;48.810;8.818;2023-03-23T07:19:58;3.30;;;1.30;;
50547;SDS011;38013;48.810;8.818;2023-03-23T07:22:24;3.72;;;1.20;;
50547;SDS011;38013;48.810;8.818;2023-03-23T07:24:58;3.17;;;1.40;;
50547;SDS011;38013;48.810;8.818;2023-03-23T07:27:30;3.47;;;1.25;;
50547;SDS011;38013;48.810;8.818;2023-03-23T07:29:59;4.03;;;1.20;;
50547;SDS011;38013;48.810;8.818;2023-03-23T07:32:25;3.25;;;1.20;;
50547;SDS011;38013;48.810;8.818;2023-03-23T07:34:52;2.40;;;1.20;;
50547;SDS011;38013;48.810;8.818;2023-03-23T07:37:30;5.47;;;1.20;;
50547;SDS011;38013;48.810;8.818;2023-03-23T07:39:57;3.28;;;1.10;;
50547;SDS011;38013;48.810;8.818;2023-03-23T07:42:23;3.17;;;1.35;;
50547;SDS011;38013;48.810;8.818;2023-03-23T07:44:56;3.67;;;1.20;;
50547;SDS011;38013;48.810;8.818;2023-03-23T07:47:22;2.50;;;1.20;;
50547;SDS011;38013;48.810;8.818;2023-03-23T07:49:48;2.63;;;1.48;;
50547;SDS011;38013;48.810;8.818;2023-03-23T07:52:25;2.45;;;1.05;;
50547;SDS011;38013;48.810;8.818;2023-03-23T07:54:51;2.20;;;1.10;;
50547;SDS011;38013;48.810;8.818;2023-03-23T07:57:40;3.30;;;1.10;;
50547;SDS011;38013;48.810;8.818;2023-03-23T08:00:06;2.58;;;1.02;;
50547;SDS011;38013;48.810;8.818;2023-03-23T08:02:48;2.47;;;1.10;;
50547;SDS011;38013;48.810;8.818;2023-03-23T08:05:25;2.50;;;1.20;;
50547;SDS011;38013;48.810;8.818;2023-03-23T08:08:26;3.47;;;1.50;;
50547;SDS011;38013;48.810;8.818;2023-03-23T08:11:25;2.88;;;1.10;;
50547;SDS011;38013;48.810;8.818;2023-03-23T08:14:10;2.95;;;1.40;;
50547;SDS011;38013;48.810;8.818;2023-03-23T08:16:59;3.10;;;1.23;;
50547;SDS011;38013;48.810;8.818;2023-03-23T08:19:54;1.98;;;1.02;;
50547;SDS011;38013;48.810;8.818;2023-03-23T08:22:54;2.85;;;1.20;;
50547;SDS011;38013;48.810;8.818;2023-03-23T08:25:40;2.88;;;1.08;;
50547;SDS011;38013;48.810;8.818;2023-03-23T08:31:08;4.00;;;1.25;;
50547;SDS011;38013;48.810;8.818;2023-03-23T08:33:50;3.67;;;1.40;;
50547;SDS011;38013;48.810;8.818;2023-03-23T08:36:34;3.67;;;1.10;;
50547;SDS011;38013;48.810;8.818;2023-03-23T08:39:21;2.92;;;1.00;;
50547;SDS011;38013;48.810;8.818;2023-03-23T08:42:14;2.60;;;1.20;;
50547;SDS011;38013;48.810;8.818;2023-03-23T08:45:03;3.47;;;1.00;;
50547;SDS011;38013;48.810;8.818;2023-03-23T08:47:58;2.05;;;1.00;;
50547;SDS011;38013;48.810;8.818;2023-03-23T08:50:38;3.42;;;0.90;;
50547;SDS011;38013;48.810;8.818;2023-03-23T08:53:15;3.13;;;1.15;;
50547;SDS011;38013;48.810;8.818;2023-03-23T08:55:49;2.45;;;1.20;;
50547;SDS011;38013;48.810;8.818;2023-03-23T08:58:15;3.03;;;1.25;;
50547;SDS011;38013;48.810;8.818;2023-03-23T09:01:01;2.80;;;1.27;;
50547;SDS011;38013;48.810;8.818;2023-03-23T09:03:48;2.63;;;1.05;;
50547;SDS011;38013;48.810;8.818;2023-03-23T09:06:44;4.50;;;1.20;;
50547;SDS011;38013;48.810;8.818;2023-03-23T09:09:11;3.40;;;1.23;;
50547;SDS011;38013;48.810;8.818;2023-03-23T09:11:37;1.92;;;0.98;;
50547;SDS011;38013;48.810;8.818;2023-03-23T09:14:04;3.33;;;1.23;;
50547;SDS011;38013;48.810;8.818;2023-03-23T09:16:32;2.78;;;1.30;;
50547;SDS011;38013;48.810;8.818;2023-03-23T09:18:59;2.67;;;1.30;;
50547;SDS011;38013;48.810;8.818;2023-03-23T09:21:26;4.93;;;1.23;;
50547;SDS011;38013;48.810;8.818;2023-03-23T09:23:53;3.20;;;1.27;;
50547;SDS011;38013;48.810;8.818;2023-03-23T09:26:23;2.67;;;1.23;;
50547;SDS011;38013;48.810;8.818;2023-03-23T09:28:51;2.92;;;1.30;;
50547;SDS011;38013;48.810;8.818;2023-03-23T09:31:17;2.22;;;1.20;;
50547;SDS011;38013;48.810;8.818;2023-03-23T09:36:16;2.38;;;1.20;;
50547;SDS011;38013;48.810;8.818;2023-03-23T09:38:46;2.78;;;1.08;;
50547;SDS011;38013;48.810;8.818;2023-03-23T09:46:48;3.13;;;1.17;;
50547;SDS011;38013;48.810;8.818;2023-03-23T09:52:10;3.60;;;1.00;;
50547;SDS011;38013;48.810;8.818;2023-03-23T09:54:43;4.60;;;1.40;;
50547;SDS011;38013;48.810;8.818;2023-03-23T10:00:24;2.58;;;1.23;;
50547;SDS011;38013;48.810;8.818;2023-03-23T10:03:13;2.70;;;1.08;;
50547;SDS011;38013;48.810;8.818;2023-03-23T10:05:49;2.10;;;1.00;;
50547;SDS011;38013;48.810;8.818;2023-03-23T10:08:20;2.35;;;1.20;;
50547;SDS011;38013;48.810;8.818;2023-03-23T10:16:24;2.63;;;1.02;;
50547;SDS011;38013;48.810;8.818;2023-03-23T10:19:02;4.93;;;1.20;;
50547;SDS011;38013;48.810;8.818;2023-03-23T10:21:54;2.50;;;1.00;;
50547;SDS011;38013;48.810;8.818;2023-03-23T10:24:31;2.38;;;0.95;;
50547;SDS011;38013;48.810;8.818;2023-03-23T10:27:16;2.58;;;0.90;;
50547;SDS011;38013;48.810;8.818;2023-03-23T10:29:52;3.10;;;1.17;;
50547;SDS011;38013;48.810;8.818;2023-03-23T10:32:47;2.03;;;1.02;;
50547;SDS011;38013;48.810;8.818;2023-03-23T10:35:24;2.60;;;1.17;;
50547;SDS011;38013;48.810;8.818;2023-03-23T10:38:01;2.05;;;0.85;;
50547;SDS011;38013;48.810;8.818;2023-03-23T10:40:31;3.03;;;1.00;;
50547;SDS011;38013;48.810;8.818;2023-03-23T10:43:08;1.63;;;0.95;;
50547;SDS011;38013;48.810;8.818;2023-03-23T10:45:34;2.10;;;0.93;;
50547;SDS011;38013;48.810;8.818;2023-03-23T10:50:39;1.83;;;0.82;;
50547;SDS011;38013;48.810;8.818;2023-03-23T10:53:23;2.47;;;1.00;;
50547;SDS011;38013;48.810;8.818;2023-03-23T10:55:57;2.00;;;0.90;;
50547;SDS011;38013;48.810;8.818;2023-03-23T10:58:34;1.75;;;0.80;;
50547;SDS011;38013;48.810;8.818;2023-03-23T11:01:02;2.53;;;0.90;;
50547;SDS011;38013;48.810;8.818;2023-03-23T11:06:07;2.13;;;0.90;;
50547;SDS011;38013;48.810;8.818;2023-03-23T11:11:27;3.13;;;0.90;;
50547;SDS011;38013;48.810;8.818;2023-03-23T11:13:56;1.83;;;0.80;;
50547;SDS011;38013;48.810;8.818;2023-03-23T11:16:29;1.58;;;0.90;;
50547;SDS011;38013;48.810;8.818;2023-03-23T11:19:11;2.22;;;1.08;;
50547;SDS011;38013;48.810;8.818;2023-03-23T11:21:39;4.18;;;1.15;;
50547;SDS011;38013;48.810;8.818;2023-03-23T11:24:11;3.92;;;1.15;;
50547;SDS011;38013;48.810;8.818;2023-03-23T11:26:37;4.63;;;1.33;;
50547;SDS011;38013;48.810;8.818;2023-03-23T11:29:05;3.42;;;1.30;;
50547;SDS011;38013;48.810;8.818;2023-03-23T11:31:39;2.47;;;1.17;;
50547;SDS011;38013;48.810;8.818;2023-03-23T11:34:42;3.22;;;1.02;;
50547;SDS011;38013;48.810;8.818;2023-03-23T11:39:59;2.78;;;1.25;;
50547;SDS011;38013;48.810;8.818;2023-03-23T11:45:13;3.95;;;1.25;;
50547;SDS011;38013;48.810;8.818;2023-03-23T11:48:03;2.47;;;1.20;;
50547;SDS011;38013;48.810;8.818;2023-03-23T11:53:22;3.55;;;1.20;;
50547;SDS011;38013;48.810;8.818;2023-03-23T11:56:13;3.40;;;1.23;;
50547;SDS011;38013;48.810;8.818;2023-03-23T11:59:01;2.40;;;1.10;;
50547;SDS011;38013;48.810;8.818;2023-03-23T12:17:41;3.10;;;1.10;;
50547;SDS011;38013;48.810;8.818;2023-03-23T12:26:13;3.03;;;1.27;;
50547;SDS011;38013;48.810;8.818;2023-03-23T12:31:58;2.70;;;1.10;;
50547;SDS011;38013;48.810;8.818;2023-03-23T12:41:13;3.88;;;1.40;;
50547;SDS011;38013;48.810;8.818;2023-03-23T12:43:48;3.58;;;1.20;;
50547;SDS011;38013;48.810;8.818;2023-03-23T12:46:39;3.45;;;1.40;;
50547;SDS011;38013;48.810;8.818;2023-03-23T12:51:57;2.75;;;1.25;;
50547;SDS011;38013;48.810;8.818;2023-03-23T12:54:47;2.85;;;1.30;;
50547;SDS011;38013;48.810;8.818;2023-03-23T13:00:24;2.75;;;1.05;;
50547;SDS011;38013;48.810;8.818;2023-03-23T13:08:19;3.08;;;1.40;;
50547;SDS011;38013;48.810;8.818;2023-03-23T13:11:08;2.97;;;1.40;;
50547;SDS011;38013;48.810;8.818;2023-03-23T13:13:51;2.80;;;1.20;;
50547;SDS011;38013;48.810;8.818;2023-03-23T13:16:34;3.88;;;1.20;;
50547;SDS011;38013;48.810;8.818;2023-03-23T13:22:36;3.25;;;1.40;;
50547;SDS011;38013;48.810;8.818;2023-03-23T13:25:18;4.38;;;1.20;;
50547;SDS011;38013;48.810;8.818;2023-03-23T13:28:04;3.40;;;1.20;;
50547;SDS011;38013;48.810;8.818;2023-03-23T13:30:30;2.85;;;1.42;;
50547;SDS011;38013;48.810;8.818;2023-03-23T13:33:04;4.68;;;1.20;;
50547;SDS011;38013;48.810;8.818;2023-03-23T13:35:33;4.07;;;1.50;;
50547;SDS011;38013;48.810;8.818;2023-03-23T13:38:10;3.38;;;1.52;;
50547;SDS011;38013;48.810;8.818;2023-03-23T13:40:51;3.05;;;1.40;;
50547;SDS011;38013;48.810;8.818;2023-03-23T13:43:25;2.40;;;1.10;;
50547;SDS011;38013;48.810;8.818;2023-03-23T13:54:39;2.25;;;1.10;;
50547;SDS011;38013;48.810;8.818;2023-03-23T13:57:23;3.60;;;1.30;;
50547;SDS011;38013;48.810;8.818;2023-03-23T14:05:34;4.70;;;1.40;;
50547;SDS011;38013;48.810;8.818;2023-03-23T14:08:20;2.80;;;1.40;;
50547;SDS011;38013;48.810;8.818;2023-03-23T14:10:56;2.00;;;1.05;;
50547;SDS011;38013;48.810;8.818;2023-03-23T14:16:04;5.22;;;1.30;;
50547;SDS011;38013;48.810;8.818;2023-03-23T14:21:25;4.78;;;1.70;;
50547;SDS011;38013;48.810;8.818;2023-03-23T14:24:01;3.25;;;1.38;;
50547;SDS011;38013;48.810;8.818;2023-03-23T14:26:33;3.28;;;1.55;;
50547;SDS011;38013;48.810;8.818;2023-03-23T14:29:01;2.78;;;1.23;;
50547;SDS011;38013;48.810;8.818;2023-03-23T14:31:28;3.75;;;1.38;;
50547;SDS011;38013;48.810;8.818;2023-03-23T14:33:55;3.33;;;1.42;;
50547;SDS011;38013;48.810;8.818;2023-03-23T14:36:22;2.95;;;1.10;;
50547;SDS011;38013;48.810;8.818;2023-03-23T14:39:35;3.97;;;1.40;;
50547;SDS011;38013;48.810;8.818;2023-03-23T14:41:46;2.67;;;1.30;;
50547;SDS011;38013;48.810;8.818;2023-03-23T14:44:14;3.88;;;1.38;;
50547;SDS011;38013;48.810;8.818;2023-03-23T14:46:45;4.07;;;1.48;;
50547;SDS011;38013;48.810;8.818;2023-03-23T14:49:12;4.53;;;1.55;;
50547;SDS011;38013;48.810;8.818;2023-03-23T14:51:52;4.30;;;1.30;;
50547;SDS011;38013;48.810;8.818;2023-03-23T14:54:25;2.85;;;1.27;;
50547;SDS011;38013;48.810;8.818;2023-03-23T14:56:53;2.83;;;1.10;;
50547;SDS011;38013;48.810;8.818;2023-03-23T14:59:20;2.67;;;1.20;;
50547;SDS011;38013;48.810;8.818;2023-03-23T15:01:47;2.33;;;1.23;;
50547;SDS011;38013;48.810;8.818;2023-03-23T15:04:23;3.30;;;1.17;;
50547;SDS011;38013;48.810;8.818;2023-03-23T15:06:52;3.88;;;1.45;;
50547;SDS011;38013;48.810;8.818;2023-03-23T15:09:24;3.40;;;1.50;;
50547;SDS011;38013;48.810;8.818;2023-03-23T15:12:01;3.28;;;1.20;;
50547;SDS011;38013;48.810;8.818;2023-03-23T15:14:29;2.20;;;1.25;;
50547;SDS011;38013;48.810;8.818;2023-03-23T15:17:10;4.45;;;1.35;;
50547;SDS011;38013;48.810;8.818;2023-03-23T15:19:50;3.17;;;1.52;;
50547;SDS011;38013;48.810;8.818;2023-03-23T15:22:24;2.75;;;1.25;;
50547;SDS011;38013;48.810;8.818;2023-03-23T15:25:29;3.85;;;1.30;;
50547;SDS011;38013;48.810;8.818;2023-03-23T15:27:55;2.63;;;1.13;;
50547;SDS011;38013;48.810;8.818;2023-03-23T15:30:36;3.90;;;1.33;;
50547;SDS011;38013;48.810;8.818;2023-03-23T15:33:12;4.63;;;1.40;;
50547;SDS011;38013;48.810;8.818;2023-03-23T15:35:40;3.25;;;1.38;;
50547;SDS011;38013;48.810;8.818;2023-03-23T15:38:24;2.25;;;1.20;;
50547;SDS011;38013;48.810;8.818;2023-03-23T15:40:56;3.15;;;1.30;;
50547;SDS011;38013;48.810;8.818;2023-03-23T15:43:54;3.60;;;1.45;;
50547;SDS011;38013;48.810;8.818;2023-03-23T15:46:24;3.60;;;1.45;;
50547;SDS011;38013;48.810;8.818;2023-03-23T15:51:24;2.80;;;1.30;;
50547;SDS011;38013;48.810;8.818;2023-03-23T15:53:53;3.67;;;1.30;;
50547;SDS011;38013;48.810;8.818;2023-03-23T15:56:20;3.20;;;1.40;;
50547;SDS011;38013;48.810;8.818;2023-03-23T15:58:47;3.33;;;1.23;;
50547;SDS011;38013;48.810;8.818;2023-03-23T16:01:15;3.30;;;1.40;;
50547;SDS011;38013;48.810;8.818;2023-03-23T16:04:07;2.57;;;1.13;;
50547;SDS011;38013;48.810;8.818;2023-03-23T16:06:41;4.03;;;1.55;;
50547;SDS011;38013;48.810;8.818;2023-03-23T16:09:12;3.85;;;1.50;;
50547;SDS011;38013;48.810;8.818;2023-03-23T16:11:42;3.20;;;1.30;;
50547;SDS011;38013;48.810;8.818;2023-03-23T16:14:09;3.88;;;1.50;;
50547;SDS011;38013;48.810;8.818;2023-03-23T16:16:37;2.78;;;1.30;;
50547;SDS011;38013;48.810;8.818;2023-03-23T16:19:10;4.13;;;1.40;;
50547;SDS011;38013;48.810;8.818;2023-03-23T16:21:39;2.92;;;1.30;;
50547;SDS011;38013;48.810;8.818;2023-03-23T16:24:07;2.65;;;1.27;;
50547;SDS011;38013;48.810;8.818;2023-03-23T16:26:35;3.83;;;1.42;;
50547;SDS011;38013;48.810;8.818;2023-03-23T16:29:04;3.28;;;1.20;;
50547;SDS011;38013;48.810;8.818;2023-03-23T16:31:57;2.75;;;1.23;;
50547;SDS011;38013;48.810;8.818;2023-03-23T16:34:24;2.35;;;1.30;;
50547;SDS011;38013;48.810;8.818;2023-03-23T16:36:54;2.95;;;1.27;;
50547;SDS011;38013;48.810;8.818;2023-03-23T16:39:21;3.67;;;1.20;;
50547;SDS011;38013;48.810;8.818;2023-03-23T16:41:48;2.22;;;1.17;;
50547;SDS011;38013;48.810;8.818;2023-03-23T16:44:15;3.30;;;1.17;;
50547;SDS011;38013;48.810;8.818;2023-03-23T16:46:42;2.60;;;1.20;;
50547;SDS011;38013;48.810;8.818;2023-03-23T16:49:09;2.58;;;1.10;;
50547;SDS011;38013;48.810;8.818;2023-03-23T16:51:36;3.38;;;1.20;;
50547;SDS011;38013;48.810;8.818;2023-03-23T16:54:03;2.20;;;1.00;;
50547;SDS011;38013;48.810;8.818;2023-03-23T16:56:29;3.33;;;1.38;;
50547;SDS011;38013;48.810;8.818;2023-03-23T16:58:57;2.38;;;1.17;;
50547;SDS011;38013;48.810;8.818;2023-03-23T17:01:24;3.45;;;1.35;;
50547;SDS011;38013;48.810;8.818;2023-03-23T17:03:51;2.75;;;1.30;;
50547;SDS011;38013;48.810;8.818;2023-03-23T17:06:19;4.20;;;1.20;;
50547;SDS011;38013;48.810;8.818;2023-03-23T17:08:46;2.95;;;1.15;;
50547;SDS011;38013;48.810;8.818;2023-03-23T17:11:13;3.72;;;1.10;;
50547;SDS011;38013;48.810;8.818;2023-03-23T17:13:40;2.70;;;1.05;;
50547;SDS011;38013;48.810;8.818;2023-03-23T17:16:07;2.90;;;1.10;;
50547;SDS011;38013;48.810;8.818;2023-03-23T17:18:34;2.47;;;1.35;;
50547;SDS011;38013;48.810;8.818;2023-03-23T17:21:01;2.38;;;1.05;;
50547;SDS011;38013;48.810;8.818;2023-03-23T17:23:28;4.10;;;1.50;;
50547;SDS011;38013;48.810;8.818;2023-03-23T17:25:55;2.88;;;1.35;;
50547;SDS011;38013;48.810;8.818;2023-03-23T17:28:21;3.53;;;1.50;;